sensor_id;sensor_type;location;lat;lon;timestamp;P1;durP1;ratioP1;P2;durP2;ratioP2
55312;SDS011;46892;45.668;11.756;2022-12-20T00:01:48;58.17;;;36.30;;
55312;SDS011;46892;45.668;11.756;2022-12-20T00:04:14;58.53;;;37.27;;
55312;SDS011;46892;45.668;11.756;2022-12-20T00:06:39;54.47;;;36.37;;
55312;SDS011;46892;45.668;11.756;2022-12-20T00:09:06;59.67;;;37.50;;
55312;SDS011;46892;45.668;11.756;2022-12-20T00:11:32;57.53;;;37.40;;
55312;SDS011;46892;45.668;11.756;2022-12-20T00:13:58;58.83;;;38.53;;
55312;SDS011;46892;45.668;11.756;2022-12-20T00:16:25;61.20;;;39.50;;
55312;SDS011;46892;45.668;11.756;2022-12-20T00:18:56;57.10;;;36.90;;
55312;SDS011;46892;45.668;11.756;2022-12-20T00:21:23;61.47;;;38.77;;
55312;SDS011;46892;45.668;11.756;2022-12-20T00:23:50;63.80;;;40.07;;
55312;SDS011;46892;45.668;11.756;2022-12-20T00:26:17;57.63;;;36.17;;
55312;SDS011;46892;45.668;11.756;2022-12-20T00:28:45;58.00;;;38.00;;
55312;SDS011;46892;45.668;11.756;2022-12-20T00:31:12;59.57;;;38.30;;
55312;SDS011;46892;45.668;11.756;2022-12-20T00:33:39;56.27;;;36.87;;
55312;SDS011;46892;45.668;11.756;2022-12-20T00:36:06;67.30;;;42.67;;
55312;SDS011;46892;45.668;11.756;2022-12-20T00:38:32;63.63;;;40.27;;
55312;SDS011;46892;45.668;11.756;2022-12-20T00:43:28;56.80;;;37.63;;
55312;SDS011;46892;45.668;11.756;2022-12-20T00:45:54;60.77;;;38.93;;
55312;SDS011;46892;45.668;11.756;2022-12-20T00:48:21;60.93;;;39.70;;
55312;SDS011;46892;45.668;11.756;2022-12-20T00:50:47;55.73;;;38.40;;
55312;SDS011;46892;45.668;11.756;2022-12-20T00:53:12;55.83;;;37.40;;
55312;SDS011;46892;45.668;11.756;2022-12-20T00:55:45;55.53;;;37.37;;
55312;SDS011;46892;45.668;11.756;2022-12-20T00:58:11;54.00;;;35.20;;
55312;SDS011;46892;45.668;11.756;2022-12-20T01:00:37;53.77;;;35.90;;
55312;SDS011;46892;45.668;11.756;2022-12-20T01:03:04;51.33;;;33.87;;
55312;SDS011;46892;45.668;11.756;2022-12-20T01:05:30;47.70;;;33.70;;
55312;SDS011;46892;45.668;11.756;2022-12-20T01:07:56;53.07;;;34.37;;
55312;SDS011;46892;45.668;11.756;2022-12-20T01:10:22;51.50;;;35.53;;
55312;SDS011;46892;45.668;11.756;2022-12-20T01:12:48;55.90;;;35.60;;
55312;SDS011;46892;45.668;11.756;2022-12-20T01:15:14;53.97;;;36.00;;
55312;SDS011;46892;45.668;11.756;2022-12-20T01:17:40;58.70;;;37.00;;
55312;SDS011;46892;45.668;11.756;2022-12-20T01:20:06;54.20;;;36.50;;
55312;SDS011;46892;45.668;11.756;2022-12-20T01:22:32;59.63;;;38.20;;
55312;SDS011;46892;45.668;11.756;2022-12-20T01:24:58;53.43;;;36.80;;
55312;SDS011;46892;45.668;11.756;2022-12-20T01:27:24;58.40;;;37.83;;
55312;SDS011;46892;45.668;11.756;2022-12-20T01:29:50;61.67;;;38.30;;
55312;SDS011;46892;45.668;11.756;2022-12-20T01:32:15;58.67;;;38.10;;
55312;SDS011;46892;45.668;11.756;2022-12-20T01:34:41;57.53;;;37.63;;
55312;SDS011;46892;45.668;11.756;2022-12-20T01:37:07;53.37;;;36.23;;
55312;SDS011;46892;45.668;11.756;2022-12-20T01:39:32;58.63;;;36.73;;
55312;SDS011;46892;45.668;11.756;2022-12-20T01:41:58;56.27;;;36.07;;
55312;SDS011;46892;45.668;11.756;2022-12-20T01:46:51;57.67;;;38.33;;
55312;SDS011;46892;45.668;11.756;2022-12-20T01:49:19;54.33;;;36.57;;
55312;SDS011;46892;45.668;11.756;2022-12-20T01:54:55;55.73;;;36.37;;
55312;SDS011;46892;45.668;11.756;2022-12-20T01:57:28;52.33;;;35.37;;
55312;SDS011;46892;45.668;11.756;2022-12-20T01:59:59;59.30;;;36.23;;
55312;SDS011;46892;45.668;11.756;2022-12-20T02:02:25;53.73;;;35.00;;
55312;SDS011;46892;45.668;11.756;2022-12-20T02:04:51;52.33;;;34.20;;
55312;SDS011;46892;45.668;11.756;2022-12-20T02:07:17;50.57;;;34.23;;
55312;SDS011;46892;45.668;11.756;2022-12-20T02:09:48;51.57;;;34.13;;
55312;SDS011;46892;45.668;11.756;2022-12-20T02:12:14;52.40;;;35.13;;
55312;SDS011;46892;45.668;11.756;2022-12-20T02:17:22;59.00;;;36.00;;
55312;SDS011;46892;45.668;11.756;2022-12-20T02:28:39;50.03;;;34.30;;
55312;SDS011;46892;45.668;11.756;2022-12-20T02:31:26;50.22;;;33.47;;
55312;SDS011;46892;45.668;11.756;2022-12-20T02:33:58;53.30;;;32.93;;
55312;SDS011;46892;45.668;11.756;2022-12-20T02:36:25;47.33;;;31.73;;
55312;SDS011;46892;45.668;11.756;2022-12-20T02:38:51;50.57;;;33.50;;
55312;SDS011;46892;45.668;11.756;2022-12-20T02:41:18;46.90;;;30.63;;
55312;SDS011;46892;45.668;11.756;2022-12-20T02:43:55;48.77;;;31.90;;
55312;SDS011;46892;45.668;11.756;2022-12-20T02:46:44;44.53;;;30.07;;
55312;SDS011;46892;45.668;11.756;2022-12-20T02:49:12;45.03;;;28.43;;
55312;SDS011;46892;45.668;11.756;2022-12-20T02:54:09;45.67;;;28.83;;
55312;SDS011;46892;45.668;11.756;2022-12-20T02:56:43;47.30;;;30.43;;
55312;SDS011;46892;45.668;11.756;2022-12-20T02:59:21;42.83;;;29.77;;
55312;SDS011;46892;45.668;11.756;2022-12-20T03:01:58;43.33;;;28.43;;
55312;SDS011;46892;45.668;11.756;2022-12-20T03:04:25;43.43;;;28.27;;
55312;SDS011;46892;45.668;11.756;2022-12-20T03:07:08;43.20;;;28.30;;
55312;SDS011;46892;45.668;11.756;2022-12-20T03:09:41;37.67;;;26.07;;
55312;SDS011;46892;45.668;11.756;2022-12-20T03:12:09;39.92;;;27.42;;
55312;SDS011;46892;45.668;11.756;2022-12-20T03:14:36;41.37;;;27.23;;
55312;SDS011;46892;45.668;11.756;2022-12-20T03:17:02;41.37;;;27.87;;
55312;SDS011;46892;45.668;11.756;2022-12-20T03:19:28;45.27;;;27.93;;
55312;SDS011;46892;45.668;11.756;2022-12-20T03:21:54;45.00;;;27.30;;
55312;SDS011;46892;45.668;11.756;2022-12-20T03:24:19;40.40;;;26.70;;
55312;SDS011;46892;45.668;11.756;2022-12-20T03:26:45;44.00;;;26.03;;
55312;SDS011;46892;45.668;11.756;2022-12-20T03:29:11;39.30;;;25.60;;
55312;SDS011;46892;45.668;11.756;2022-12-20T03:31:37;42.53;;;27.00;;
55312;SDS011;46892;45.668;11.756;2022-12-20T03:34:03;39.63;;;25.73;;
55312;SDS011;46892;45.668;11.756;2022-12-20T03:36:29;38.97;;;25.07;;
55312;SDS011;46892;45.668;11.756;2022-12-20T03:38:55;37.17;;;24.10;;
55312;SDS011;46892;45.668;11.756;2022-12-20T03:41:21;35.57;;;22.93;;
55312;SDS011;46892;45.668;11.756;2022-12-20T03:43:48;38.77;;;23.70;;
55312;SDS011;46892;45.668;11.756;2022-12-20T03:46:14;34.10;;;22.13;;
55312;SDS011;46892;45.668;11.756;2022-12-20T03:48:40;35.40;;;22.57;;
55312;SDS011;46892;45.668;11.756;2022-12-20T03:51:06;33.77;;;22.37;;
55312;SDS011;46892;45.668;11.756;2022-12-20T03:53:32;36.40;;;23.00;;
55312;SDS011;46892;45.668;11.756;2022-12-20T03:55:58;32.10;;;22.03;;
55312;SDS011;46892;45.668;11.756;2022-12-20T03:58:24;32.93;;;20.87;;
55312;SDS011;46892;45.668;11.756;2022-12-20T04:00:50;34.50;;;21.93;;
55312;SDS011;46892;45.668;11.756;2022-12-20T04:03:16;34.27;;;22.63;;
55312;SDS011;46892;45.668;11.756;2022-12-20T04:05:41;35.33;;;22.03;;
55312;SDS011;46892;45.668;11.756;2022-12-20T04:08:07;30.97;;;21.53;;
55312;SDS011;46892;45.668;11.756;2022-12-20T04:10:33;33.50;;;21.80;;
55312;SDS011;46892;45.668;11.756;2022-12-20T04:13:21;35.47;;;21.70;;
55312;SDS011;46892;45.668;11.756;2022-12-20T04:15:47;31.57;;;20.53;;
55312;SDS011;46892;45.668;11.756;2022-12-20T04:18:12;30.27;;;20.27;;
55312;SDS011;46892;45.668;11.756;2022-12-20T04:20:38;35.23;;;21.63;;
55312;SDS011;46892;45.668;11.756;2022-12-20T04:23:04;34.20;;;21.73;;
55312;SDS011;46892;45.668;11.756;2022-12-20T04:25:29;35.50;;;21.57;;
55312;SDS011;46892;45.668;11.756;2022-12-20T04:27:55;32.97;;;21.17;;
55312;SDS011;46892;45.668;11.756;2022-12-20T04:30:21;33.10;;;20.43;;
55312;SDS011;46892;45.668;11.756;2022-12-20T04:32:46;30.93;;;19.73;;
55312;SDS011;46892;45.668;11.756;2022-12-20T04:35:12;29.90;;;18.33;;
55312;SDS011;46892;45.668;11.756;2022-12-20T04:37:38;27.27;;;18.30;;
55312;SDS011;46892;45.668;11.756;2022-12-20T04:40:04;27.83;;;18.50;;
55312;SDS011;46892;45.668;11.756;2022-12-20T04:42:30;27.20;;;18.17;;
55312;SDS011;46892;45.668;11.756;2022-12-20T04:44:56;28.47;;;17.77;;
55312;SDS011;46892;45.668;11.756;2022-12-20T04:47:22;27.93;;;18.77;;
55312;SDS011;46892;45.668;11.756;2022-12-20T04:49:47;26.07;;;17.30;;
55312;SDS011;46892;45.668;11.756;2022-12-20T04:52:13;27.23;;;17.33;;
55312;SDS011;46892;45.668;11.756;2022-12-20T04:54:57;26.93;;;17.17;;
55312;SDS011;46892;45.668;11.756;2022-12-20T04:57:23;27.03;;;18.03;;
55312;SDS011;46892;45.668;11.756;2022-12-20T04:59:48;27.30;;;17.87;;
55312;SDS011;46892;45.668;11.756;2022-12-20T05:02:14;29.17;;;18.93;;
55312;SDS011;46892;45.668;11.756;2022-12-20T05:04:40;26.33;;;18.27;;
55312;SDS011;46892;45.668;11.756;2022-12-20T05:07:05;31.63;;;17.67;;
55312;SDS011;46892;45.668;11.756;2022-12-20T05:09:31;27.50;;;18.27;;
55312;SDS011;46892;45.668;11.756;2022-12-20T05:11:57;25.60;;;17.80;;
55312;SDS011;46892;45.668;11.756;2022-12-20T05:14:22;26.77;;;18.10;;
55312;SDS011;46892;45.668;11.756;2022-12-20T05:16:48;25.90;;;17.70;;
55312;SDS011;46892;45.668;11.756;2022-12-20T05:19:13;27.97;;;18.43;;
55312;SDS011;46892;45.668;11.756;2022-12-20T05:21:39;26.50;;;15.93;;
55312;SDS011;46892;45.668;11.756;2022-12-20T05:24:23;23.63;;;16.27;;
55312;SDS011;46892;45.668;11.756;2022-12-20T05:27:07;25.63;;;16.53;;
55312;SDS011;46892;45.668;11.756;2022-12-20T05:29:33;23.83;;;15.70;;
55312;SDS011;46892;45.668;11.756;2022-12-20T05:31:59;23.40;;;16.70;;
55312;SDS011;46892;45.668;11.756;2022-12-20T05:34:24;27.50;;;16.17;;
55312;SDS011;46892;45.668;11.756;2022-12-20T05:36:50;26.37;;;16.33;;
55312;SDS011;46892;45.668;11.756;2022-12-20T05:39:16;26.13;;;17.27;;
55312;SDS011;46892;45.668;11.756;2022-12-20T05:41:41;29.83;;;18.37;;
55312;SDS011;46892;45.668;11.756;2022-12-20T05:44:07;25.37;;;15.50;;
55312;SDS011;46892;45.668;11.756;2022-12-20T05:46:33;21.10;;;15.23;;
55312;SDS011;46892;45.668;11.756;2022-12-20T05:48:58;23.87;;;15.93;;
55312;SDS011;46892;45.668;11.756;2022-12-20T05:51:24;27.60;;;16.20;;
55312;SDS011;46892;45.668;11.756;2022-12-20T05:53:50;26.67;;;15.97;;
55312;SDS011;46892;45.668;11.756;2022-12-20T05:56:16;24.83;;;16.87;;
55312;SDS011;46892;45.668;11.756;2022-12-20T05:58:41;24.50;;;16.13;;
55312;SDS011;46892;45.668;11.756;2022-12-20T06:01:08;23.73;;;15.53;;
55312;SDS011;46892;45.668;11.756;2022-12-20T06:03:34;23.30;;;15.50;;
55312;SDS011;46892;45.668;11.756;2022-12-20T06:06:01;23.50;;;15.60;;
55312;SDS011;46892;45.668;11.756;2022-12-20T06:08:27;27.03;;;17.10;;
55312;SDS011;46892;45.668;11.756;2022-12-20T06:10:52;27.53;;;16.73;;
55312;SDS011;46892;45.668;11.756;2022-12-20T06:13:19;25.70;;;15.27;;
55312;SDS011;46892;45.668;11.756;2022-12-20T06:15:45;24.90;;;16.63;;
55312;SDS011;46892;45.668;11.756;2022-12-20T06:18:10;27.43;;;16.73;;
55312;SDS011;46892;45.668;11.756;2022-12-20T06:20:36;26.70;;;16.07;;
55312;SDS011;46892;45.668;11.756;2022-12-20T06:23:02;25.23;;;15.43;;
55312;SDS011;46892;45.668;11.756;2022-12-20T06:25:28;24.57;;;14.47;;
55312;SDS011;46892;45.668;11.756;2022-12-20T06:27:54;24.07;;;15.03;;
55312;SDS011;46892;45.668;11.756;2022-12-20T06:30:20;26.30;;;16.07;;
55312;SDS011;46892;45.668;11.756;2022-12-20T06:32:46;22.43;;;14.93;;
55312;SDS011;46892;45.668;11.756;2022-12-20T06:35:12;23.17;;;15.43;;
55312;SDS011;46892;45.668;11.756;2022-12-20T06:37:38;24.47;;;15.97;;
55312;SDS011;46892;45.668;11.756;2022-12-20T06:40:05;24.10;;;15.53;;
55312;SDS011;46892;45.668;11.756;2022-12-20T06:42:36;25.50;;;15.57;;
55312;SDS011;46892;45.668;11.756;2022-12-20T06:45:03;23.93;;;15.60;;
55312;SDS011;46892;45.668;11.756;2022-12-20T06:47:29;25.40;;;15.83;;
55312;SDS011;46892;45.668;11.756;2022-12-20T06:49:55;23.57;;;15.33;;
55312;SDS011;46892;45.668;11.756;2022-12-20T06:52:21;28.87;;;17.27;;
55312;SDS011;46892;45.668;11.756;2022-12-20T06:54:47;28.67;;;18.17;;
55312;SDS011;46892;45.668;11.756;2022-12-20T06:57:12;26.57;;;16.27;;
55312;SDS011;46892;45.668;11.756;2022-12-20T06:59:38;25.97;;;16.43;;
55312;SDS011;46892;45.668;11.756;2022-12-20T07:02:04;27.10;;;16.83;;
55312;SDS011;46892;45.668;11.756;2022-12-20T07:04:30;31.20;;;17.37;;
55312;SDS011;46892;45.668;11.756;2022-12-20T07:06:56;25.10;;;15.77;;
55312;SDS011;46892;45.668;11.756;2022-12-20T07:09:21;28.50;;;16.97;;
55312;SDS011;46892;45.668;11.756;2022-12-20T07:11:47;30.13;;;16.70;;
55312;SDS011;46892;45.668;11.756;2022-12-20T07:14:13;27.93;;;17.93;;
55312;SDS011;46892;45.668;11.756;2022-12-20T07:16:39;25.80;;;16.83;;
55312;SDS011;46892;45.668;11.756;2022-12-20T07:19:11;25.57;;;16.57;;
55312;SDS011;46892;45.668;11.756;2022-12-20T07:21:38;25.40;;;16.75;;
55312;SDS011;46892;45.668;11.756;2022-12-20T07:24:03;24.33;;;16.47;;
55312;SDS011;46892;45.668;11.756;2022-12-20T07:26:30;29.10;;;17.43;;
55312;SDS011;46892;45.668;11.756;2022-12-20T07:28:55;26.97;;;17.83;;
55312;SDS011;46892;45.668;11.756;2022-12-20T07:31:21;23.83;;;16.40;;
55312;SDS011;46892;45.668;11.756;2022-12-20T07:33:47;26.00;;;17.83;;
55312;SDS011;46892;45.668;11.756;2022-12-20T07:36:13;25.67;;;15.70;;
55312;SDS011;46892;45.668;11.756;2022-12-20T07:38:42;25.73;;;15.93;;
55312;SDS011;46892;45.668;11.756;2022-12-20T07:43:34;25.03;;;16.40;;
55312;SDS011;46892;45.668;11.756;2022-12-20T07:46:00;23.57;;;15.97;;
55312;SDS011;46892;45.668;11.756;2022-12-20T07:48:27;26.70;;;16.73;;
55312;SDS011;46892;45.668;11.756;2022-12-20T07:50:53;24.97;;;16.93;;
55312;SDS011;46892;45.668;11.756;2022-12-20T07:53:25;29.47;;;16.77;;
55312;SDS011;46892;45.668;11.756;2022-12-20T07:55:52;23.17;;;16.33;;
55312;SDS011;46892;45.668;11.756;2022-12-20T07:58:19;23.20;;;15.17;;
55312;SDS011;46892;45.668;11.756;2022-12-20T08:00:46;24.07;;;16.53;;
55312;SDS011;46892;45.668;11.756;2022-12-20T08:03:25;23.83;;;16.03;;
55312;SDS011;46892;45.668;11.756;2022-12-20T08:05:56;24.03;;;15.70;;
55312;SDS011;46892;45.668;11.756;2022-12-20T08:08:24;27.80;;;16.67;;
55312;SDS011;46892;45.668;11.756;2022-12-20T08:10:50;28.80;;;17.17;;
55312;SDS011;46892;45.668;11.756;2022-12-20T08:13:16;25.80;;;17.07;;
55312;SDS011;46892;45.668;11.756;2022-12-20T08:15:42;25.17;;;17.63;;
55312;SDS011;46892;45.668;11.756;2022-12-20T08:18:08;24.60;;;16.67;;
55312;SDS011;46892;45.668;11.756;2022-12-20T08:20:34;29.00;;;18.90;;
55312;SDS011;46892;45.668;11.756;2022-12-20T08:23:01;25.40;;;17.40;;
55312;SDS011;46892;45.668;11.756;2022-12-20T08:25:27;27.37;;;17.67;;
55312;SDS011;46892;45.668;11.756;2022-12-20T08:27:53;27.13;;;17.47;;
55312;SDS011;46892;45.668;11.756;2022-12-20T08:30:19;28.60;;;18.50;;
55312;SDS011;46892;45.668;11.756;2022-12-20T08:32:44;26.77;;;18.13;;
55312;SDS011;46892;45.668;11.756;2022-12-20T08:35:10;30.03;;;19.67;;
55312;SDS011;46892;45.668;11.756;2022-12-20T08:37:36;31.87;;;21.60;;
55312;SDS011;46892;45.668;11.756;2022-12-20T08:40:02;30.43;;;21.00;;
55312;SDS011;46892;45.668;11.756;2022-12-20T08:42:28;30.07;;;22.00;;
55312;SDS011;46892;45.668;11.756;2022-12-20T08:44:54;32.80;;;22.77;;
55312;SDS011;46892;45.668;11.756;2022-12-20T08:47:20;35.77;;;25.13;;
55312;SDS011;46892;45.668;11.756;2022-12-20T08:49:45;36.87;;;24.40;;
55312;SDS011;46892;45.668;11.756;2022-12-20T08:52:11;41.03;;;25.10;;
55312;SDS011;46892;45.668;11.756;2022-12-20T08:54:37;38.93;;;26.90;;
55312;SDS011;46892;45.668;11.756;2022-12-20T08:57:02;37.80;;;25.30;;
55312;SDS011;46892;45.668;11.756;2022-12-20T08:59:28;36.67;;;24.67;;
55312;SDS011;46892;45.668;11.756;2022-12-20T09:01:53;36.63;;;24.40;;
55312;SDS011;46892;45.668;11.756;2022-12-20T09:04:20;43.20;;;25.13;;
55312;SDS011;46892;45.668;11.756;2022-12-20T09:06:45;37.87;;;25.27;;
55312;SDS011;46892;45.668;11.756;2022-12-20T09:09:11;36.37;;;24.60;;
55312;SDS011;46892;45.668;11.756;2022-12-20T09:11:37;39.53;;;25.70;;
55312;SDS011;46892;45.668;11.756;2022-12-20T09:14:03;36.70;;;25.47;;
55312;SDS011;46892;45.668;11.756;2022-12-20T09:16:29;38.43;;;25.37;;
55312;SDS011;46892;45.668;11.756;2022-12-20T09:18:57;42.63;;;26.37;;
55312;SDS011;46892;45.668;11.756;2022-12-20T09:21:24;46.80;;;27.10;;
55312;SDS011;46892;45.668;11.756;2022-12-20T09:23:51;41.63;;;27.90;;
55312;SDS011;46892;45.668;11.756;2022-12-20T09:26:18;43.47;;;27.80;;
55312;SDS011;46892;45.668;11.756;2022-12-20T09:28:45;43.80;;;30.17;;
55312;SDS011;46892;45.668;11.756;2022-12-20T09:31:15;44.23;;;32.07;;
55312;SDS011;46892;45.668;11.756;2022-12-20T09:33:42;42.53;;;30.10;;
55312;SDS011;46892;45.668;11.756;2022-12-20T09:36:13;49.70;;;29.73;;
55312;SDS011;46892;45.668;11.756;2022-12-20T09:38:41;42.20;;;30.20;;
55312;SDS011;46892;45.668;11.756;2022-12-20T09:41:08;42.07;;;29.30;;
55312;SDS011;46892;45.668;11.756;2022-12-20T09:43:58;43.90;;;30.53;;
55312;SDS011;46892;45.668;11.756;2022-12-20T09:48:53;41.57;;;30.03;;
55312;SDS011;46892;45.668;11.756;2022-12-20T09:57:38;43.60;;;30.13;;
55312;SDS011;46892;45.668;11.756;2022-12-20T09:59:40;39.57;;;27.80;;
55312;SDS011;46892;45.668;11.756;2022-12-20T10:02:08;36.17;;;26.27;;
55312;SDS011;46892;45.668;11.756;2022-12-20T10:04:36;39.00;;;26.47;;
55312;SDS011;46892;45.668;11.756;2022-12-20T10:15:35;42.33;;;31.43;;
55312;SDS011;46892;45.668;11.756;2022-12-20T10:20:45;50.73;;;34.53;;
55312;SDS011;46892;45.668;11.756;2022-12-20T10:23:27;47.60;;;33.80;;
55312;SDS011;46892;45.668;11.756;2022-12-20T10:26:01;44.23;;;32.03;;
55312;SDS011;46892;45.668;11.756;2022-12-20T10:28:33;47.23;;;33.73;;
55312;SDS011;46892;45.668;11.756;2022-12-20T10:31:06;44.53;;;32.97;;
55312;SDS011;46892;45.668;11.756;2022-12-20T10:33:36;40.47;;;31.70;;
55312;SDS011;46892;45.668;11.756;2022-12-20T10:38:57;42.07;;;28.93;;
55312;SDS011;46892;45.668;11.756;2022-12-20T10:46:44;37.30;;;26.97;;
55312;SDS011;46892;45.668;11.756;2022-12-20T10:52:16;35.97;;;25.77;;
55312;SDS011;46892;45.668;11.756;2022-12-20T10:54:45;39.60;;;27.20;;
55312;SDS011;46892;45.668;11.756;2022-12-20T10:57:20;34.43;;;23.73;;
55312;SDS011;46892;45.668;11.756;2022-12-20T11:04:56;35.23;;;25.17;;
55312;SDS011;46892;45.668;11.756;2022-12-20T11:07:31;34.47;;;23.80;;
55312;SDS011;46892;45.668;11.756;2022-12-20T11:10:02;30.93;;;22.33;;
55312;SDS011;46892;45.668;11.756;2022-12-20T11:12:55;34.53;;;23.00;;
55312;SDS011;46892;45.668;11.756;2022-12-20T11:15:27;35.37;;;23.60;;
55312;SDS011;46892;45.668;11.756;2022-12-20T11:20:43;37.67;;;24.37;;
55312;SDS011;46892;45.668;11.756;2022-12-20T11:23:25;44.50;;;26.13;;
55312;SDS011;46892;45.668;11.756;2022-12-20T11:28:57;36.47;;;23.07;;
55312;SDS011;46892;45.668;11.756;2022-12-20T11:32:19;29.50;;;21.70;;
55312;SDS011;46892;45.668;11.756;2022-12-20T11:34:29;31.63;;;21.23;;
55312;SDS011;46892;45.668;11.756;2022-12-20T11:37:19;27.27;;;18.50;;
55312;SDS011;46892;45.668;11.756;2022-12-20T11:45:30;29.07;;;19.27;;
55312;SDS011;46892;45.668;11.756;2022-12-20T11:53:44;27.67;;;18.60;;
55312;SDS011;46892;45.668;11.756;2022-12-20T11:56:20;27.70;;;18.83;;
55312;SDS011;46892;45.668;11.756;2022-12-20T12:01:52;25.98;;;18.48;;
55312;SDS011;46892;45.668;11.756;2022-12-20T12:04:25;24.73;;;17.17;;
55312;SDS011;46892;45.668;11.756;2022-12-20T12:06:58;26.87;;;17.47;;
55312;SDS011;46892;45.668;11.756;2022-12-20T12:09:57;23.93;;;15.87;;
55312;SDS011;46892;45.668;11.756;2022-12-20T12:12:33;21.03;;;14.77;;
55312;SDS011;46892;45.668;11.756;2022-12-20T12:18:17;26.43;;;17.10;;
55312;SDS011;46892;45.668;11.756;2022-12-20T12:26:20;24.33;;;17.10;;
55312;SDS011;46892;45.668;11.756;2022-12-20T12:28:59;24.07;;;17.50;;
55312;SDS011;46892;45.668;11.756;2022-12-20T12:31:39;23.77;;;16.57;;
55312;SDS011;46892;45.668;11.756;2022-12-20T12:40:42;25.40;;;17.77;;
55312;SDS011;46892;45.668;11.756;2022-12-20T12:45:26;26.13;;;17.77;;
55312;SDS011;46892;45.668;11.756;2022-12-20T12:48:04;26.88;;;20.05;;
55312;SDS011;46892;45.668;11.756;2022-12-20T12:50:38;28.67;;;20.00;;
55312;SDS011;46892;45.668;11.756;2022-12-20T12:53:13;26.93;;;19.43;;
55312;SDS011;46892;45.668;11.756;2022-12-20T12:55:58;26.03;;;19.07;;
55312;SDS011;46892;45.668;11.756;2022-12-20T13:04:28;24.57;;;18.23;;
55312;SDS011;46892;45.668;11.756;2022-12-20T13:07:25;27.90;;;19.03;;
55312;SDS011;46892;45.668;11.756;2022-12-20T13:09:57;27.83;;;19.40;;
55312;SDS011;46892;45.668;11.756;2022-12-20T13:20:35;23.40;;;15.90;;
55312;SDS011;46892;45.668;11.756;2022-12-20T13:25:35;21.83;;;15.50;;
55312;SDS011;46892;45.668;11.756;2022-12-20T13:43:50;24.67;;;16.23;;
55312;SDS011;46892;45.668;11.756;2022-12-20T13:48:50;22.73;;;16.03;;
55312;SDS011;46892;45.668;11.756;2022-12-20T13:51:18;22.40;;;15.53;;
55312;SDS011;46892;45.668;11.756;2022-12-20T13:56:46;25.50;;;16.57;;
55312;SDS011;46892;45.668;11.756;2022-12-20T14:01:56;24.63;;;17.93;;
55312;SDS011;46892;45.668;11.756;2022-12-20T14:04:38;25.67;;;17.13;;
55312;SDS011;46892;45.668;11.756;2022-12-20T14:07:07;26.00;;;17.77;;
55312;SDS011;46892;45.668;11.756;2022-12-20T14:09:42;26.07;;;17.27;;
55312;SDS011;46892;45.668;11.756;2022-12-20T14:12:16;25.77;;;17.83;;
55312;SDS011;46892;45.668;11.756;2022-12-20T14:14:43;27.60;;;19.30;;
55312;SDS011;46892;45.668;11.756;2022-12-20T14:22:36;23.87;;;16.37;;
55312;SDS011;46892;45.668;11.756;2022-12-20T14:25:05;27.00;;;17.87;;
55312;SDS011;46892;45.668;11.756;2022-12-20T14:27:33;22.83;;;15.87;;
55312;SDS011;46892;45.668;11.756;2022-12-20T14:30:01;38.17;;;21.47;;
55312;SDS011;46892;45.668;11.756;2022-12-20T14:32:27;50.33;;;27.17;;
55312;SDS011;46892;45.668;11.756;2022-12-20T14:34:53;34.33;;;22.53;;
55312;SDS011;46892;45.668;11.756;2022-12-20T14:37:25;31.10;;;19.77;;
55312;SDS011;46892;45.668;11.756;2022-12-20T14:39:58;28.03;;;18.30;;
55312;SDS011;46892;45.668;11.756;2022-12-20T14:42:35;27.98;;;17.90;;
55312;SDS011;46892;45.668;11.756;2022-12-20T14:45:14;25.37;;;17.37;;
55312;SDS011;46892;45.668;11.756;2022-12-20T14:47:49;23.38;;;17.83;;
55312;SDS011;46892;45.668;11.756;2022-12-20T14:50:30;31.80;;;21.70;;
55312;SDS011;46892;45.668;11.756;2022-12-20T14:52:58;32.27;;;21.43;;
55312;SDS011;46892;45.668;11.756;2022-12-20T14:55:35;41.23;;;23.40;;
55312;SDS011;46892;45.668;11.756;2022-12-20T14:58:21;32.63;;;20.60;;
55312;SDS011;46892;45.668;11.756;2022-12-20T15:01:23;30.53;;;19.33;;
55312;SDS011;46892;45.668;11.756;2022-12-20T15:03:47;32.57;;;19.57;;
55312;SDS011;46892;45.668;11.756;2022-12-20T15:09:12;28.83;;;18.57;;
55312;SDS011;46892;45.668;11.756;2022-12-20T15:11:38;26.17;;;18.40;;
55312;SDS011;46892;45.668;11.756;2022-12-20T15:16:59;25.87;;;18.67;;
55312;SDS011;46892;45.668;11.756;2022-12-20T15:19:25;24.23;;;17.37;;
55312;SDS011;46892;45.668;11.756;2022-12-20T15:21:51;27.47;;;18.50;;
55312;SDS011;46892;45.668;11.756;2022-12-20T15:24:18;27.20;;;18.10;;
55312;SDS011;46892;45.668;11.756;2022-12-20T15:26:49;28.57;;;18.90;;
55312;SDS011;46892;45.668;11.756;2022-12-20T15:29:20;27.37;;;18.93;;
55312;SDS011;46892;45.668;11.756;2022-12-20T15:31:50;34.23;;;20.20;;
55312;SDS011;46892;45.668;11.756;2022-12-20T15:34:27;33.63;;;20.67;;
55312;SDS011;46892;45.668;11.756;2022-12-20T15:36:56;36.13;;;22.13;;
55312;SDS011;46892;45.668;11.756;2022-12-20T15:39:24;32.00;;;22.70;;
55312;SDS011;46892;45.668;11.756;2022-12-20T15:41:50;34.40;;;22.00;;
55312;SDS011;46892;45.668;11.756;2022-12-20T15:44:20;34.13;;;21.60;;
55312;SDS011;46892;45.668;11.756;2022-12-20T15:46:48;33.07;;;21.73;;
55312;SDS011;46892;45.668;11.756;2022-12-20T15:49:15;94.27;;;27.33;;
55312;SDS011;46892;45.668;11.756;2022-12-20T15:51:43;55.03;;;27.50;;
55312;SDS011;46892;45.668;11.756;2022-12-20T15:54:22;40.70;;;27.13;;
55312;SDS011;46892;45.668;11.756;2022-12-20T15:56:51;42.97;;;27.50;;
55312;SDS011;46892;45.668;11.756;2022-12-20T15:59:19;44.00;;;26.07;;
55312;SDS011;46892;45.668;11.756;2022-12-20T16:01:45;36.23;;;24.73;;
55312;SDS011;46892;45.668;11.756;2022-12-20T16:04:15;40.40;;;26.73;;
55312;SDS011;46892;45.668;11.756;2022-12-20T16:06:45;33.50;;;21.97;;
55312;SDS011;46892;45.668;11.756;2022-12-20T16:09:12;31.23;;;21.40;;
55312;SDS011;46892;45.668;11.756;2022-12-20T16:11:38;31.30;;;20.80;;
55312;SDS011;46892;45.668;11.756;2022-12-20T16:14:04;33.80;;;20.63;;
55312;SDS011;46892;45.668;11.756;2022-12-20T16:16:33;41.73;;;24.30;;
55312;SDS011;46892;45.668;11.756;2022-12-20T16:19:00;35.92;;;22.10;;
55312;SDS011;46892;45.668;11.756;2022-12-20T16:21:31;31.07;;;21.07;;
55312;SDS011;46892;45.668;11.756;2022-12-20T16:24:08;51.03;;;28.43;;
55312;SDS011;46892;45.668;11.756;2022-12-20T16:26:36;47.47;;;27.98;;
55312;SDS011;46892;45.668;11.756;2022-12-20T16:29:02;45.33;;;27.13;;
55312;SDS011;46892;45.668;11.756;2022-12-20T16:33:55;42.90;;;26.00;;
55312;SDS011;46892;45.668;11.756;2022-12-20T16:36:22;41.70;;;27.23;;
55312;SDS011;46892;45.668;11.756;2022-12-20T16:38:49;39.73;;;25.90;;
55312;SDS011;46892;45.668;11.756;2022-12-20T16:41:17;45.03;;;27.07;;
55312;SDS011;46892;45.668;11.756;2022-12-20T16:43:44;54.43;;;31.43;;
55312;SDS011;46892;45.668;11.756;2022-12-20T16:46:14;46.63;;;29.80;;
55312;SDS011;46892;45.668;11.756;2022-12-20T16:48:42;59.20;;;33.40;;
55312;SDS011;46892;45.668;11.756;2022-12-20T16:53:57;49.03;;;31.20;;